createdAt,value
2022-09-21T00:00:37.080Z,48.93
2022-09-21T00:01:37.127Z,37.87
2022-09-21T00:02:38.087Z,36.52
2022-09-21T00:03:37.065Z,36.40
2022-09-21T00:04:37.128Z,36.25
2022-09-21T00:05:37.055Z,36.78
2022-09-21T00:06:37.040Z,48.64
2022-09-21T00:07:37.065Z,50.17
2022-09-21T00:08:37.012Z,50.85
2022-09-21T00:09:38.014Z,44.86
2022-09-21T00:10:37.008Z,43.35
2022-09-21T00:11:36.999Z,37.11
2022-09-21T00:12:37.017Z,50.18
2022-09-21T00:13:36.989Z,48.98
2022-09-21T00:14:36.978Z,59.98
2022-09-21T00:15:36.961Z,55.30
2022-09-21T00:16:38.026Z,46.73
2022-09-21T00:17:36.953Z,43.09
2022-09-21T00:18:36.944Z,45.38
2022-09-21T00:19:36.939Z,54.54
2022-09-21T00:20:36.931Z,51.47
2022-09-21T00:21:36.959Z,42.25
2022-09-21T00:22:36.911Z,43.55
2022-09-21T00:23:36.904Z,46.07
2022-09-21T00:24:36.900Z,48.05
2022-09-21T00:25:36.892Z,36.37
2022-09-21T00:26:36.912Z,41.18
2022-09-21T00:27:36.878Z,58.15
2022-09-21T00:28:36.867Z,43.82
2022-09-21T00:29:36.861Z,43.42
2022-09-21T00:30:36.854Z,42.51
2022-09-21T00:31:36.927Z,38.57
2022-09-21T00:32:36.833Z,56.12
2022-09-21T00:33:36.839Z,48.33
2022-09-21T00:34:36.820Z,46.79
2022-09-21T00:35:36.812Z,37.00
2022-09-21T00:36:36.838Z,42.53
2022-09-21T00:37:36.794Z,41.13
2022-09-21T00:38:36.794Z,36.19
2022-09-21T00:39:36.785Z,44.34
2022-09-21T00:40:36.807Z,54.30
2022-09-21T00:41:36.794Z,36.71
2022-09-21T00:42:36.768Z,40.17
2022-09-21T00:43:36.750Z,50.46
2022-09-21T00:44:36.744Z,61.41
2022-09-21T00:45:36.756Z,49.02
2022-09-21T00:46:36.758Z,37.86
2022-09-21T00:47:36.726Z,38.59
2022-09-21T00:48:36.710Z,48.32
2022-09-21T00:49:36.704Z,36.41
2022-09-21T00:50:36.699Z,37.12
2022-09-21T00:51:36.717Z,51.41
2022-09-21T00:52:36.680Z,51.29
2022-09-21T00:53:36.671Z,44.83
2022-09-21T00:54:36.667Z,48.83
2022-09-21T00:55:36.652Z,43.33
2022-09-21T00:56:36.668Z,37.04
2022-09-21T00:57:36.636Z,50.61
2022-09-21T00:58:36.629Z,44.32
2022-09-21T00:59:36.621Z,47.00
2022-09-21T01:00:36.613Z,50.33
2022-09-21T01:01:36.630Z,37.26
2022-09-21T01:02:36.601Z,40.39
2022-09-21T01:03:36.591Z,53.91
2022-09-21T01:04:36.584Z,37.63
2022-09-21T01:05:36.581Z,38.14
2022-09-21T01:06:36.599Z,37.69
2022-09-21T01:07:36.565Z,46.82
2022-09-21T01:08:36.559Z,45.72
2022-09-21T01:09:36.550Z,53.31
2022-09-21T01:10:36.536Z,44.34
2022-09-21T01:11:36.561Z,44.61
2022-09-21T01:12:36.530Z,60.47
2022-09-21T01:13:36.515Z,47.38
2022-09-21T01:14:36.511Z,38.65
2022-09-21T01:15:36.503Z,48.06
2022-09-21T01:16:36.593Z,48.52
2022-09-21T01:17:36.483Z,43.24
2022-09-21T01:18:36.476Z,58.32
2022-09-21T01:19:36.466Z,50.00
2022-09-21T01:20:36.462Z,51.82
2022-09-21T01:21:36.459Z,52.75
2022-09-21T01:22:36.474Z,41.44
2022-09-21T01:23:36.478Z,52.24
2022-09-21T01:24:36.432Z,48.79
2022-09-21T01:25:36.420Z,55.88
2022-09-21T01:26:36.417Z,48.24
2022-09-21T01:27:36.432Z,49.51
2022-09-21T01:28:36.399Z,48.67
2022-09-21T01:29:36.395Z,43.96
2022-09-21T01:30:36.394Z,51.56
2022-09-21T01:31:36.491Z,37.13
2022-09-21T01:32:36.394Z,39.30
2022-09-21T01:33:36.365Z,55.07
2022-09-21T01:34:36.352Z,45.88
2022-09-21T01:35:36.341Z,46.04
2022-09-21T01:36:36.341Z,51.94
2022-09-21T01:37:36.355Z,45.86
2022-09-21T01:38:36.320Z,55.20
2022-09-21T01:39:36.310Z,49.96
2022-09-21T01:40:36.370Z,51.97
2022-09-21T01:41:36.297Z,57.59
2022-09-21T01:42:36.317Z,46.18
2022-09-21T01:43:36.277Z,43.97
2022-09-21T01:44:36.281Z,48.54
2022-09-21T01:45:36.324Z,51.50
2022-09-21T01:46:36.256Z,45.98
2022-09-21T01:47:36.278Z,43.12
2022-09-21T01:48:36.243Z,45.79
2022-09-21T01:49:36.242Z,55.23
2022-09-21T01:50:36.224Z,56.50
2022-09-21T01:51:36.214Z,57.90
2022-09-21T01:52:36.245Z,40.95
2022-09-21T01:53:36.204Z,49.84
2022-09-21T01:54:36.200Z,52.13
2022-09-21T01:55:36.188Z,48.23
2022-09-21T01:56:36.178Z,50.08
2022-09-21T01:57:36.194Z,49.31
2022-09-21T01:58:36.174Z,55.49
2022-09-21T01:59:36.160Z,49.66
2022-09-21T02:00:36.211Z,49.77
2022-09-21T02:01:36.170Z,50.26
2022-09-21T02:02:36.169Z,50.97
2022-09-21T02:03:36.127Z,56.13
2022-09-21T02:04:36.117Z,50.32
2022-09-21T02:05:36.116Z,38.23
2022-09-21T02:06:36.099Z,55.65
2022-09-21T02:07:36.129Z,53.81
2022-09-21T02:08:36.084Z,51.47
2022-09-21T02:09:36.087Z,46.86
2022-09-21T02:10:36.069Z,47.80
2022-09-21T02:11:36.059Z,38.37
2022-09-21T02:12:36.115Z,58.68
2022-09-21T02:13:36.052Z,51.12
2022-09-21T02:14:36.033Z,58.11
2022-09-21T02:15:36.031Z,52.91
2022-09-21T02:16:36.018Z,55.13
2022-09-21T02:17:36.015Z,40.74
2022-09-21T02:18:36.033Z,36.72
2022-09-21T02:19:36.001Z,38.49
2022-09-21T02:20:35.998Z,38.84
2022-09-21T02:21:35.979Z,48.78
2022-09-21T02:22:35.974Z,44.42
2022-09-21T02:23:35.988Z,57.97
2022-09-21T02:24:35.959Z,56.04
2022-09-21T02:25:35.951Z,51.47
2022-09-21T02:26:35.941Z,45.05
2022-09-21T02:27:35.936Z,47.94
2022-09-21T02:28:35.989Z,41.88
2022-09-21T02:29:35.924Z,55.83
2022-09-21T02:30:35.920Z,48.88
2022-09-21T02:31:35.956Z,53.63
2022-09-21T02:32:35.897Z,53.31
2022-09-21T02:33:35.911Z,36.46
2022-09-21T02:34:35.879Z,36.15
2022-09-21T02:35:35.883Z,42.44
2022-09-21T02:36:35.867Z,58.82
2022-09-21T02:37:35.856Z,51.42
2022-09-21T02:38:35.879Z,57.04
2022-09-21T02:39:35.855Z,59.52
2022-09-21T02:40:35.877Z,55.26
2022-09-21T02:41:35.825Z,50.69
2022-09-21T02:42:35.823Z,36.60
2022-09-21T02:43:35.842Z,44.76
2022-09-21T02:44:35.809Z,51.21
2022-09-21T02:45:35.809Z,49.76
2022-09-21T02:46:35.845Z,60.07
2022-09-21T02:47:35.786Z,57.86
2022-09-21T02:48:35.801Z,54.81
2022-09-21T02:49:35.765Z,50.03
2022-09-21T02:50:35.754Z,51.45
2022-09-21T02:51:35.749Z,54.11
2022-09-21T02:52:35.737Z,47.26
2022-09-21T02:53:35.757Z,56.64
2022-09-21T02:54:35.731Z,42.88
2022-09-21T02:55:35.716Z,54.39
2022-09-21T02:56:35.707Z,56.86
2022-09-21T02:57:35.703Z,49.80
2022-09-21T02:58:35.717Z,54.04
2022-09-21T02:59:35.691Z,50.98
2022-09-21T03:00:35.706Z,55.88
2022-09-21T03:01:35.691Z,54.25
2022-09-21T03:02:35.663Z,54.52
2022-09-21T03:03:35.675Z,54.64
2022-09-21T03:04:35.654Z,54.72
2022-09-21T03:05:35.640Z,56.96
2022-09-21T03:06:35.625Z,45.30
2022-09-21T03:07:35.622Z,53.39
2022-09-21T03:08:35.632Z,54.73
2022-09-21T03:09:35.606Z,52.04
2022-09-21T03:10:35.601Z,61.45
2022-09-21T03:11:35.588Z,53.84
2022-09-21T03:12:35.566Z,52.56
2022-09-21T03:13:36.598Z,52.39
2022-09-21T03:14:35.561Z,57.20
2022-09-21T03:15:35.609Z,56.29
2022-09-21T03:16:35.565Z,61.13
2022-09-21T03:17:35.535Z,51.03
2022-09-21T03:18:35.561Z,60.12
2022-09-21T03:19:35.523Z,49.41
2022-09-21T03:20:35.513Z,52.51
2022-09-21T03:21:38.370Z,57.32
2022-09-21T03:22:35.504Z,59.53
2022-09-21T03:23:35.496Z,56.87
2022-09-21T03:24:35.511Z,61.23
2022-09-21T03:25:35.480Z,54.66
2022-09-21T03:26:35.467Z,59.26
2022-09-21T03:27:35.462Z,53.84
2022-09-21T03:28:35.477Z,59.45
2022-09-21T03:29:35.441Z,58.07
2022-09-21T03:30:35.439Z,60.14
2022-09-21T03:31:35.429Z,60.46
2022-09-21T03:32:35.425Z,59.23
2022-09-21T03:33:35.414Z,56.68
2022-09-21T03:34:35.431Z,56.27
2022-09-21T03:35:35.399Z,57.13
2022-09-21T03:36:35.391Z,56.38
2022-09-21T03:37:39.316Z,59.44
2022-09-21T03:38:37.376Z,60.83
2022-09-21T03:39:35.393Z,54.44
2022-09-21T03:40:35.385Z,53.14
2022-09-21T03:41:35.352Z,59.54
2022-09-21T03:42:35.341Z,59.68
2022-09-21T03:43:35.336Z,58.92
2022-09-21T03:44:35.356Z,54.30
2022-09-21T03:45:35.322Z,59.28
2022-09-21T03:46:35.343Z,63.15
2022-09-21T03:47:35.306Z,55.42
2022-09-21T03:48:35.297Z,59.85
2022-09-21T03:49:35.312Z,61.06
2022-09-21T03:50:35.286Z,57.67
2022-09-21T03:51:35.270Z,56.07
2022-09-21T03:52:35.263Z,56.10
2022-09-21T03:53:35.257Z,52.96
2022-09-21T03:54:35.271Z,57.61
2022-09-21T03:55:35.235Z,61.41
2022-09-21T03:56:35.233Z,60.93
2022-09-21T03:57:35.218Z,58.87
2022-09-21T03:58:35.214Z,58.81
2022-09-21T03:59:35.234Z,63.20
2022-09-21T04:00:35.197Z,63.87
2022-09-21T04:01:35.204Z,58.27
2022-09-21T04:02:35.231Z,58.71
2022-09-21T04:03:35.174Z,59.59
2022-09-21T04:04:35.195Z,56.46
2022-09-21T04:05:35.206Z,57.49
2022-09-21T04:06:35.156Z,61.18
2022-09-21T04:07:35.151Z,62.98
2022-09-21T04:08:35.133Z,61.55
2022-09-21T04:09:35.152Z,51.90
2022-09-21T04:10:35.126Z,62.26
2022-09-21T04:11:35.115Z,57.51
2022-09-21T04:12:35.105Z,54.38
2022-09-21T04:13:35.097Z,60.19
2022-09-21T04:14:35.088Z,62.67
2022-09-21T04:15:35.145Z,60.86
2022-09-21T04:16:35.072Z,61.89
2022-09-21T04:17:35.062Z,60.42
2022-09-21T04:18:35.055Z,62.33
2022-09-21T04:19:35.051Z,60.22
2022-09-21T04:20:35.066Z,60.50
2022-09-21T04:21:35.030Z,58.67
2022-09-21T04:22:35.424Z,58.27
2022-09-21T04:23:35.016Z,62.79
2022-09-21T04:24:35.005Z,60.60
2022-09-21T04:25:35.023Z,60.30
2022-09-21T04:26:34.991Z,62.51
2022-09-21T04:27:34.987Z,60.97
2022-09-21T04:28:34.972Z,61.34
2022-09-21T04:29:34.967Z,58.67
2022-09-21T04:30:37.712Z,64.12
2022-09-21T04:31:35.950Z,64.78
2022-09-21T04:32:34.940Z,61.70
2022-09-21T04:33:34.933Z,59.02
2022-09-21T04:34:34.920Z,63.19
2022-09-21T04:35:34.958Z,62.72
2022-09-21T04:36:36.784Z,59.59
2022-09-21T04:37:35.899Z,64.69
2022-09-21T04:38:34.893Z,61.77
2022-09-21T04:39:34.880Z,63.67
2022-09-21T04:40:34.935Z,59.71
2022-09-21T04:41:34.871Z,58.75
2022-09-21T04:42:34.865Z,64.43
2022-09-21T04:43:34.855Z,63.42
2022-09-21T04:44:34.842Z,62.74
2022-09-21T04:45:34.863Z,58.13
2022-09-21T04:46:34.844Z,61.75
2022-09-21T04:47:34.822Z,60.33
2022-09-21T04:48:34.817Z,62.39
2022-09-21T04:49:34.807Z,62.33
2022-09-21T04:50:34.826Z,60.18
2022-09-21T04:51:34.787Z,60.78
2022-09-21T04:52:34.780Z,60.54
2022-09-21T04:53:34.772Z,61.25
2022-09-21T04:54:34.766Z,62.90
2022-09-21T04:55:34.791Z,59.96
2022-09-21T04:56:34.751Z,60.37
2022-09-21T04:57:34.744Z,62.04
2022-09-21T04:58:34.739Z,62.29
2022-09-21T04:59:34.725Z,60.95
2022-09-21T05:00:34.741Z,62.97
2022-09-21T05:01:34.721Z,62.59
2022-09-21T05:02:34.703Z,56.04
2022-09-21T05:03:34.783Z,59.81
2022-09-21T05:04:34.689Z,53.03
2022-09-21T05:05:34.702Z,60.45
2022-09-21T05:06:34.672Z,63.41
2022-09-21T05:07:34.664Z,63.29
2022-09-21T05:08:34.656Z,60.80
2022-09-21T05:09:34.653Z,60.31
2022-09-21T05:10:34.667Z,62.18
2022-09-21T05:11:34.636Z,60.67
2022-09-21T05:12:35.965Z,62.81
2022-09-21T05:13:34.620Z,65.25
2022-09-21T05:14:34.613Z,64.23
2022-09-21T05:15:34.661Z,60.87
2022-09-21T05:16:34.594Z,60.25
2022-09-21T05:17:34.587Z,62.44
2022-09-21T05:18:34.579Z,60.72
2022-09-21T05:19:34.573Z,63.26
2022-09-21T05:20:34.589Z,61.88
2022-09-21T05:21:34.553Z,60.83
2022-09-21T05:22:34.551Z,61.72
2022-09-21T05:23:34.542Z,60.36
2022-09-21T05:24:34.530Z,64.67
2022-09-21T05:25:34.550Z,62.97
2022-09-21T05:26:34.516Z,61.79
2022-09-21T05:27:34.508Z,56.83
2022-09-21T05:28:39.116Z,61.73
2022-09-21T05:29:36.494Z,63.70
2022-09-21T05:30:34.554Z,57.87
2022-09-21T05:31:34.541Z,61.45
2022-09-21T05:32:34.468Z,61.82
2022-09-21T05:33:34.462Z,62.81
2022-09-21T05:34:36.787Z,61.41
2022-09-21T05:35:35.470Z,61.95
2022-09-21T05:36:34.440Z,59.85
2022-09-21T05:37:34.434Z,59.74
2022-09-21T05:38:34.420Z,61.15
2022-09-21T05:39:34.417Z,59.09
2022-09-21T05:40:34.481Z,57.87
2022-09-21T05:41:34.399Z,60.91
2022-09-21T05:42:34.393Z,63.10
2022-09-21T05:43:34.383Z,59.69
2022-09-21T05:44:34.385Z,57.14
2022-09-21T05:45:34.391Z,63.82
2022-09-21T05:46:34.361Z,62.41
2022-09-21T05:47:34.354Z,62.50
2022-09-21T05:48:34.341Z,60.52
2022-09-21T05:49:34.332Z,60.45
2022-09-21T05:50:34.342Z,58.37
2022-09-21T05:51:35.316Z,58.56
2022-09-21T05:52:34.311Z,62.32
2022-09-21T05:53:34.303Z,64.40
2022-09-21T05:54:34.296Z,59.07
2022-09-21T05:55:34.315Z,58.13
2022-09-21T05:56:34.277Z,52.80
2022-09-21T05:57:34.274Z,58.47
2022-09-21T05:58:34.262Z,62.21
2022-09-21T05:59:34.254Z,64.05
2022-09-21T06:00:34.280Z,58.31
2022-09-21T06:01:34.287Z,60.60
2022-09-21T06:02:34.315Z,63.11
2022-09-21T06:03:34.223Z,58.31
2022-09-21T06:04:34.213Z,58.69
2022-09-21T06:05:34.238Z,58.93
2022-09-21T06:06:34.198Z,59.81
2022-09-21T06:07:34.243Z,56.05
2022-09-21T06:08:34.185Z,66.89
2022-09-21T06:09:34.172Z,59.26
2022-09-21T06:10:34.171Z,57.71
2022-09-21T06:11:34.190Z,57.88
2022-09-21T06:12:34.152Z,62.15
2022-09-21T06:13:34.146Z,62.17
2022-09-21T06:14:34.137Z,59.01
2022-09-21T06:15:34.132Z,58.47
2022-09-21T06:16:34.215Z,62.32
2022-09-21T06:17:34.118Z,59.84
2022-09-21T06:18:34.110Z,60.29
2022-09-21T06:19:34.091Z,58.90
2022-09-21T06:20:35.095Z,62.10
2022-09-21T06:21:34.115Z,58.18
2022-09-21T06:22:34.077Z,59.54
2022-09-21T06:23:34.068Z,54.14
2022-09-21T06:24:34.063Z,59.84
2022-09-21T06:25:34.057Z,60.58
2022-09-21T06:26:34.082Z,57.61
2022-09-21T06:27:34.046Z,61.85
2022-09-21T06:28:34.035Z,54.83
2022-09-21T06:29:34.024Z,60.71
2022-09-21T06:30:34.045Z,62.82
2022-09-21T06:31:34.036Z,62.37
2022-09-21T06:32:34.006Z,58.96
2022-09-21T06:33:33.996Z,59.83
2022-09-21T06:34:33.992Z,64.18
2022-09-21T06:35:33.984Z,61.62
2022-09-21T06:36:33.999Z,55.46
2022-09-21T06:37:33.958Z,57.38
2022-09-21T06:38:33.950Z,60.55
2022-09-21T06:39:33.944Z,60.45
2022-09-21T06:40:33.983Z,60.32
2022-09-21T06:41:33.955Z,63.12
2022-09-21T06:42:33.928Z,54.83
2022-09-21T06:43:33.913Z,61.43
2022-09-21T06:44:33.909Z,62.47
2022-09-21T06:45:33.954Z,60.69
2022-09-21T06:46:33.923Z,61.18
2022-09-21T06:47:33.885Z,59.67
2022-09-21T06:48:33.883Z,63.96
2022-09-21T06:49:33.875Z,62.00
2022-09-21T06:50:33.872Z,59.58
2022-09-21T06:51:33.882Z,56.37
2022-09-21T06:52:33.845Z,59.62
2022-09-21T06:53:33.843Z,59.03
2022-09-21T06:54:33.835Z,61.74
2022-09-21T06:55:33.823Z,60.84
2022-09-21T06:56:33.841Z,57.21
2022-09-21T06:57:33.833Z,60.00
2022-09-21T06:58:34.801Z,63.02
2022-09-21T06:59:33.793Z,58.70
2022-09-21T07:00:33.820Z,61.39
2022-09-21T07:01:33.846Z,56.61
2022-09-21T07:02:33.767Z,64.57
2022-09-21T07:03:33.756Z,60.77
2022-09-21T07:04:33.750Z,61.27
2022-09-21T07:05:33.741Z,60.86
2022-09-21T07:06:33.761Z,63.33
2022-09-21T07:07:33.725Z,64.13
2022-09-21T07:10:35.705Z,53.98
2022-09-21T07:11:33.719Z,61.95
2022-09-21T07:12:33.686Z,63.22
2022-09-21T07:13:33.677Z,60.98
2022-09-21T07:14:33.677Z,54.21
2022-09-21T07:15:33.663Z,62.91
2022-09-21T07:16:33.969Z,73.83
2022-09-21T07:17:33.649Z,63.26
2022-09-21T07:18:42.676Z,57.97
2022-09-21T07:19:35.632Z,56.99
2022-09-21T07:20:33.626Z,61.60
2022-09-21T07:21:33.650Z,59.87
2022-09-21T07:22:33.608Z,62.64
2022-09-21T07:23:33.610Z,59.47
2022-09-21T07:24:33.595Z,61.56
2022-09-21T07:25:33.586Z,57.65
2022-09-21T07:26:33.580Z,60.16
2022-09-21T07:27:33.596Z,60.61
2022-09-21T07:28:33.579Z,60.86
2022-09-21T07:29:33.557Z,53.75
2022-09-21T07:30:33.548Z,58.91
2022-09-21T07:31:33.603Z,58.52
2022-09-21T07:32:33.812Z,60.65
2022-09-21T07:33:36.035Z,63.64
2022-09-21T07:34:34.518Z,56.90
2022-09-21T07:35:33.507Z,61.09
2022-09-21T07:36:33.503Z,64.11
2022-09-21T07:37:33.523Z,62.22
2022-09-21T07:38:33.482Z,62.15
2022-09-21T07:39:33.474Z,59.18
2022-09-21T07:40:33.525Z,61.68
2022-09-21T07:41:33.461Z,63.79
2022-09-21T07:42:33.482Z,63.21
2022-09-21T07:43:33.440Z,59.02
2022-09-21T07:44:33.433Z,54.55
2022-09-21T07:45:33.474Z,63.30
2022-09-21T07:46:33.426Z,63.27
2022-09-21T07:47:33.412Z,63.45
2022-09-21T07:48:33.459Z,59.06
2022-09-21T07:49:33.396Z,60.86
2022-09-21T07:50:33.391Z,58.71
2022-09-21T07:51:33.384Z,49.22
2022-09-21T07:52:33.410Z,64.88
2022-09-21T07:53:33.369Z,63.30
2022-09-21T07:54:33.370Z,63.71
2022-09-21T07:55:33.351Z,59.49
2022-09-21T07:56:33.342Z,56.99
2022-09-21T07:57:33.336Z,60.70
2022-09-21T07:58:33.352Z,60.61
2022-09-21T07:59:33.317Z,60.49
2022-09-21T08:00:33.349Z,57.81
2022-09-21T08:01:33.302Z,61.14
2022-09-21T08:02:33.350Z,58.59
2022-09-21T08:03:33.311Z,62.84
2022-09-21T08:04:33.282Z,55.68
2022-09-21T08:05:33.263Z,59.16
2022-09-21T08:06:34.265Z,60.02
2022-09-21T08:07:33.256Z,61.01
2022-09-21T08:08:34.073Z,59.18
2022-09-21T08:09:33.239Z,61.15
2022-09-21T08:10:33.251Z,60.31
2022-09-21T08:11:33.262Z,62.55
2022-09-21T08:12:33.242Z,57.88
2022-09-21T08:13:33.215Z,57.40
2022-09-21T08:14:33.199Z,59.93
2022-09-21T08:15:48.918Z,59.70
2022-09-21T08:16:35.857Z,62.07
2022-09-21T08:17:33.193Z,61.77
2022-09-21T08:18:33.169Z,58.38
2022-09-21T08:19:33.152Z,60.85
2022-09-21T08:20:34.149Z,59.03
2022-09-21T08:21:33.142Z,61.19
2022-09-21T08:22:33.161Z,57.07
2022-09-21T08:23:33.125Z,59.10
2022-09-21T08:24:33.124Z,61.74
2022-09-21T08:25:33.128Z,57.49
2022-09-21T08:26:33.110Z,62.48
2022-09-21T08:27:33.124Z,58.85
2022-09-21T08:28:33.098Z,62.80
2022-09-21T08:29:33.084Z,61.76
2022-09-21T08:30:33.074Z,59.17
2022-09-21T08:31:33.088Z,61.21
2022-09-21T08:32:50.481Z,64.91
2022-09-21T08:33:35.054Z,59.91
2022-09-21T08:34:33.046Z,61.75
2022-09-21T08:35:33.033Z,56.65
2022-09-21T08:36:33.032Z,61.92
2022-09-21T08:37:33.051Z,61.90
2022-09-21T08:38:33.014Z,59.91
2022-09-21T08:39:33.006Z,59.17
2022-09-21T08:40:33.035Z,60.87
2022-09-21T08:41:32.992Z,60.72
2022-09-21T08:42:33.013Z,63.98
2022-09-21T08:43:32.969Z,62.19
2022-09-21T08:44:32.967Z,60.93
2022-09-21T08:45:32.951Z,58.49
2022-09-21T08:46:32.995Z,63.20
2022-09-21T08:47:32.941Z,59.95
2022-09-21T08:48:36.601Z,58.97
2022-09-21T08:49:33.924Z,58.05
2022-09-21T08:50:32.920Z,62.22
2022-09-21T08:51:33.002Z,60.70
2022-09-21T08:52:32.938Z,58.24
2022-09-21T08:53:32.918Z,60.52
2022-09-21T08:54:32.887Z,62.70
2022-09-21T08:55:32.878Z,60.73
2022-09-21T08:56:47.404Z,59.02
2022-09-21T08:57:34.866Z,61.54
2022-09-21T08:58:32.883Z,60.00
2022-09-21T08:59:32.851Z,64.11
2022-09-21T09:00:32.875Z,65.67
2022-09-21T09:01:32.856Z,62.35
2022-09-21T09:02:32.851Z,61.05
2022-09-21T09:03:32.814Z,60.84
2022-09-21T09:04:32.811Z,64.51
2022-09-21T09:05:32.799Z,60.00
2022-09-21T09:06:32.794Z,57.30
2022-09-21T09:07:32.806Z,61.77
2022-09-21T09:08:32.772Z,64.38
2022-09-21T09:09:32.766Z,62.96
2022-09-21T09:10:32.768Z,62.18
2022-09-21T09:11:32.751Z,59.92
2022-09-21T09:12:32.768Z,62.55
2022-09-21T09:13:32.731Z,62.72
2022-09-21T09:14:32.724Z,58.34
2022-09-21T09:15:32.733Z,60.83
2022-09-21T09:16:32.736Z,64.61
2022-09-21T09:17:32.733Z,61.80
2022-09-21T09:18:32.695Z,59.17
2022-09-21T09:19:32.680Z,58.46
2022-09-21T09:20:32.675Z,62.47
2022-09-21T09:21:32.731Z,61.00
2022-09-21T09:22:32.688Z,59.26
2022-09-21T09:23:32.652Z,59.25
2022-09-21T09:24:32.644Z,62.18
2022-09-21T09:25:32.644Z,62.66
2022-09-21T09:26:32.627Z,60.02
2022-09-21T09:27:32.616Z,53.35
2022-09-21T09:28:32.631Z,61.22
2022-09-21T09:29:33.599Z,63.22
2022-09-21T09:30:32.591Z,59.06
2022-09-21T09:31:32.660Z,60.51
2022-09-21T09:32:32.577Z,59.72
2022-09-21T09:33:32.596Z,66.04
2022-09-21T09:34:32.561Z,64.51
2022-09-21T09:35:32.557Z,61.39
2022-09-21T09:36:56.610Z,62.58
2022-09-21T09:37:34.545Z,62.58
2022-09-21T09:38:32.554Z,59.94
2022-09-21T09:39:32.536Z,63.25
2022-09-21T09:40:32.579Z,58.19
2022-09-21T09:41:32.510Z,57.84
2022-09-21T09:42:32.501Z,62.41
2022-09-21T09:43:32.520Z,60.02
2022-09-21T09:44:32.486Z,57.19
2022-09-21T09:45:32.478Z,59.57
2022-09-21T09:46:32.523Z,60.32
2022-09-21T09:47:32.463Z,64.76
2022-09-21T09:48:32.490Z,63.60
2022-09-21T09:49:32.448Z,59.47
2022-09-21T09:50:32.455Z,57.56
2022-09-21T09:51:32.433Z,59.74
2022-09-21T09:52:32.430Z,62.61
2022-09-21T09:53:32.442Z,64.13
2022-09-21T09:54:32.407Z,61.75
2022-09-21T09:55:32.407Z,62.71
2022-09-21T09:56:32.389Z,61.17
2022-09-21T09:57:32.383Z,58.79
2022-09-21T09:58:32.403Z,58.54
2022-09-21T09:59:32.368Z,60.02
2022-09-21T10:00:32.359Z,57.44
2022-09-21T10:01:32.396Z,62.69
2022-09-21T10:02:32.342Z,58.49
2022-09-21T10:03:32.361Z,61.44
2022-09-21T10:04:32.414Z,65.21
2022-09-21T10:05:32.320Z,61.94
2022-09-21T10:06:32.308Z,56.65
2022-09-21T10:07:32.303Z,63.07
2022-09-21T10:08:32.322Z,60.91
2022-09-21T10:09:32.291Z,59.16
2022-09-21T10:10:32.285Z,60.81
2022-09-21T10:11:32.273Z,59.28
2022-09-21T10:12:32.261Z,59.35
2022-09-21T10:13:32.289Z,65.14
2022-09-21T10:14:32.249Z,63.93
2022-09-21T10:15:32.243Z,56.14
2022-09-21T10:16:32.265Z,62.78
2022-09-21T10:17:32.228Z,65.80
2022-09-21T10:18:32.249Z,62.61
2022-09-21T10:19:32.205Z,61.63
2022-09-21T10:20:32.204Z,64.80
2022-09-21T10:21:32.184Z,61.04
2022-09-21T10:22:33.183Z,62.30
2022-09-21T10:23:32.178Z,60.80
2022-09-21T10:24:32.193Z,58.51
2022-09-21T10:25:34.734Z,59.94
2022-09-21T10:26:32.172Z,64.57
2022-09-21T10:27:32.151Z,63.59
2022-09-21T10:28:32.141Z,62.12
2022-09-21T10:29:32.160Z,63.93
2022-09-21T10:30:32.124Z,61.21
2022-09-21T10:31:32.166Z,58.49
2022-09-21T10:32:32.108Z,58.40
2022-09-21T10:33:32.125Z,60.36
2022-09-21T10:34:32.093Z,59.67
2022-09-21T10:35:32.090Z,64.75
2022-09-21T10:36:32.079Z,63.64
2022-09-21T10:37:32.072Z,61.61
2022-09-21T10:38:32.086Z,61.02
2022-09-21T10:39:32.064Z,62.16
2022-09-21T10:40:32.121Z,64.84
2022-09-21T10:41:32.038Z,59.77
2022-09-21T10:42:32.036Z,58.98
2022-09-21T10:43:34.423Z,62.64
2022-09-21T10:44:32.010Z,60.41
2022-09-21T10:45:32.006Z,63.97
2022-09-21T10:46:32.117Z,64.82
2022-09-21T10:47:31.997Z,64.57
2022-09-21T10:48:31.989Z,64.05
2022-09-21T10:49:32.001Z,64.28
2022-09-21T10:50:31.967Z,65.56
2022-09-21T10:51:31.958Z,59.87
2022-09-21T10:52:31.950Z,62.37
2022-09-21T10:53:31.953Z,64.90
2022-09-21T10:54:31.970Z,62.32
2022-09-21T10:55:31.928Z,56.45
2022-09-21T10:56:31.918Z,62.42
2022-09-21T10:57:31.916Z,65.02
2022-09-21T10:58:31.905Z,61.11
2022-09-21T10:59:31.927Z,62.58
2022-09-21T11:00:31.895Z,63.93
2022-09-21T11:01:31.933Z,58.69
2022-09-21T11:02:31.949Z,60.22
2022-09-21T11:03:31.873Z,60.53
2022-09-21T11:04:31.883Z,61.72
2022-09-21T11:05:31.848Z,63.08
2022-09-21T11:06:31.837Z,62.96
2022-09-21T11:07:31.836Z,62.00
2022-09-21T11:08:31.826Z,62.76
2022-09-21T11:09:31.843Z,61.33
2022-09-21T11:10:34.297Z,63.24
2022-09-21T11:11:32.801Z,62.67
2022-09-21T11:12:31.795Z,60.83
2022-09-21T11:13:31.787Z,61.66
2022-09-21T11:14:31.808Z,66.35
2022-09-21T11:15:31.807Z,60.41
2022-09-21T11:16:31.780Z,61.27
2022-09-21T11:17:32.754Z,65.02
2022-09-21T11:18:31.745Z,63.80
2022-09-21T11:19:31.766Z,64.84
2022-09-21T11:20:31.735Z,63.13
2022-09-21T11:21:31.723Z,61.51
2022-09-21T11:22:31.711Z,61.68
2022-09-21T11:23:31.711Z,63.29
2022-09-21T11:24:31.708Z,65.70
2022-09-21T11:25:32.695Z,61.52
2022-09-21T11:26:31.770Z,58.83
2022-09-21T11:27:31.675Z,61.25
2022-09-21T11:28:31.666Z,60.61
2022-09-21T11:29:31.904Z,64.47
2022-09-21T11:30:31.653Z,64.73
2022-09-21T11:31:31.644Z,59.36
2022-09-21T11:32:31.717Z,61.44
2022-09-21T11:33:31.629Z,58.62
2022-09-21T11:34:31.663Z,62.18
2022-09-21T11:35:31.623Z,62.66
2022-09-21T11:36:31.608Z,61.67
2022-09-21T11:37:32.595Z,61.71
2022-09-21T11:38:34.255Z,58.61
2022-09-21T11:39:32.813Z,61.67
2022-09-21T11:40:31.692Z,61.57
2022-09-21T11:41:31.558Z,64.99
2022-09-21T11:42:31.550Z,57.75
2022-09-21T11:43:31.547Z,62.68
2022-09-21T11:44:31.535Z,65.60
2022-09-21T11:45:31.551Z,62.54
2022-09-21T11:46:31.547Z,68.12
2022-09-21T11:47:31.507Z,66.16
2022-09-21T11:48:31.520Z,56.00
2022-09-21T11:49:31.525Z,61.13
2022-09-21T11:50:31.837Z,61.27
2022-09-21T11:51:31.483Z,67.21
2022-09-21T11:52:31.475Z,62.32
2022-09-21T11:53:31.474Z,61.27
2022-09-21T11:54:31.481Z,60.23
2022-09-21T11:55:31.442Z,61.57
2022-09-21T11:56:31.442Z,59.75
2022-09-21T11:57:31.476Z,56.45
2022-09-21T11:58:31.427Z,63.01
2022-09-21T11:59:31.748Z,62.61
2022-09-21T12:00:31.633Z,61.59
2022-09-21T12:01:31.398Z,61.09
2022-09-21T12:02:31.517Z,63.10
2022-09-21T12:03:31.387Z,64.49
2022-09-21T12:04:31.405Z,60.36
2022-09-21T12:05:31.367Z,57.82
2022-09-21T12:06:31.359Z,62.18
2022-09-21T12:07:31.354Z,65.34
2022-09-21T12:08:31.343Z,60.86
2022-09-21T12:09:31.363Z,61.17
2022-09-21T12:10:31.328Z,57.84
2022-09-21T12:11:31.324Z,62.34
2022-09-21T12:12:31.314Z,59.77
2022-09-21T12:13:31.305Z,59.66
2022-09-21T12:14:31.353Z,62.17
2022-09-21T12:15:31.289Z,60.80
2022-09-21T12:16:31.297Z,59.92
2022-09-21T12:17:31.271Z,64.77
2022-09-21T12:18:31.262Z,73.87
2022-09-21T12:19:31.256Z,61.80
2022-09-21T12:20:31.275Z,63.35
2022-09-21T12:21:31.239Z,57.89
2022-09-21T12:22:31.238Z,62.28
2022-09-21T12:23:31.210Z,63.90
2022-09-21T12:24:32.344Z,62.40
2022-09-21T12:25:31.212Z,64.64
2022-09-21T12:26:31.197Z,58.28
2022-09-21T12:27:31.193Z,63.33
2022-09-21T12:28:31.181Z,59.93
2022-09-21T12:29:31.175Z,61.51
2022-09-21T12:30:31.239Z,60.57
2022-09-21T12:31:31.160Z,59.16
2022-09-21T12:32:31.151Z,60.52
2022-09-21T12:33:31.143Z,64.94
2022-09-21T12:34:31.136Z,59.21
2022-09-21T12:35:31.160Z,61.36
2022-09-21T12:36:31.114Z,62.48
2022-09-21T12:37:31.104Z,62.44
2022-09-21T12:38:31.113Z,55.76
2022-09-21T12:39:31.085Z,58.39
2022-09-21T12:40:31.144Z,58.67
2022-09-21T12:41:31.071Z,60.68
2022-09-21T12:42:31.071Z,57.92
2022-09-21T12:43:31.061Z,57.42
2022-09-21T12:44:31.052Z,58.08
2022-09-21T12:45:31.063Z,60.09
2022-09-21T12:46:31.076Z,57.70
2022-09-21T12:47:31.029Z,60.77
2022-09-21T12:48:31.017Z,61.70
2022-09-21T12:49:31.016Z,60.56
2022-09-21T12:50:31.023Z,59.99
2022-09-21T12:51:30.990Z,57.94
2022-09-21T12:52:30.990Z,58.62
2022-09-21T12:53:30.977Z,60.38
2022-09-21T12:54:30.986Z,60.04